createdAt,value
2024-04-25T00:01:22.265Z,8.25
2024-04-25T00:03:50.327Z,8.27
2024-04-25T00:06:17.780Z,8.17
2024-04-25T00:08:44.819Z,8.08
2024-04-25T00:11:12.049Z,7.99
2024-04-25T00:13:39.030Z,7.98
2024-04-25T00:16:06.392Z,8.00
2024-04-25T00:18:33.320Z,8.00
2024-04-25T00:21:00.939Z,8.04
2024-04-25T00:23:28.708Z,8.01
2024-04-25T00:25:55.774Z,7.84
2024-04-25T00:28:22.849Z,7.90
2024-04-25T00:30:51.148Z,7.87
2024-04-25T00:33:19.061Z,7.88
2024-04-25T00:35:46.558Z,7.90
2024-04-25T00:38:14.011Z,7.94
2024-04-25T00:40:41.085Z,7.95
2024-04-25T00:43:08.020Z,7.97
2024-04-25T00:45:35.202Z,8.05
2024-04-25T00:48:04.052Z,8.03
2024-04-25T00:50:32.056Z,8.00
2024-04-25T00:53:02.443Z,8.06
2024-04-25T00:55:30.063Z,8.00
2024-04-25T00:57:57.797Z,7.98
2024-04-25T01:00:26.146Z,7.97
2024-04-25T01:02:57.676Z,7.97
2024-04-25T01:05:26.071Z,7.98
2024-04-25T01:07:53.076Z,7.96
2024-04-25T01:10:20.114Z,7.95
2024-04-25T01:12:47.144Z,7.97
2024-04-25T01:15:14.283Z,7.99
2024-04-25T01:17:41.444Z,7.93
2024-04-25T01:20:09.710Z,7.96
2024-04-25T01:22:50.432Z,7.88
2024-04-25T01:25:19.745Z,7.86
2024-04-25T01:27:47.663Z,7.89
2024-04-25T01:30:17.153Z,7.93
2024-04-25T01:32:45.281Z,8.02
2024-04-25T01:35:12.999Z,7.86
2024-04-25T01:37:40.309Z,7.85
2024-04-25T01:40:08.421Z,7.74
2024-04-25T01:42:35.404Z,7.69
2024-04-25T01:45:02.649Z,7.64
2024-04-25T01:47:29.843Z,7.50
2024-04-25T01:49:57.205Z,7.46
2024-04-25T01:52:24.246Z,7.38
2024-04-25T01:54:51.283Z,7.31
2024-04-25T01:57:18.236Z,7.29
2024-04-25T01:59:45.250Z,7.27
2024-04-25T02:02:12.295Z,7.14
2024-04-25T02:04:39.471Z,6.80
2024-04-25T02:07:11.961Z,6.82
2024-04-25T02:09:39.587Z,6.95
2024-04-25T02:12:07.154Z,7.07
2024-04-25T02:14:34.726Z,6.99
2024-04-25T02:17:01.975Z,7.08
2024-04-25T02:19:30.111Z,6.94
2024-04-25T02:22:15.410Z,6.89
2024-04-25T02:25:01.064Z,6.65
2024-04-25T02:27:28.202Z,6.82
2024-04-25T02:29:55.245Z,6.82
2024-04-25T02:32:22.417Z,6.84
2024-04-25T02:34:49.600Z,6.82
2024-04-25T02:37:16.614Z,6.94
2024-04-25T02:39:43.614Z,6.84
2024-04-25T02:42:10.848Z,6.92
2024-04-25T02:44:37.927Z,6.77
2024-04-25T02:47:05.095Z,6.61
2024-04-25T02:49:32.140Z,6.53
2024-04-25T02:51:59.250Z,6.53
2024-04-25T02:54:26.677Z,6.58
2024-04-25T02:56:53.964Z,6.46
2024-04-25T02:59:21.411Z,6.43
2024-04-25T03:01:48.596Z,6.46
2024-04-25T03:04:15.708Z,6.47
2024-04-25T03:06:42.689Z,6.45
2024-04-25T03:09:10.390Z,6.47
2024-04-25T03:11:37.729Z,6.45
2024-04-25T03:14:05.519Z,6.44
2024-04-25T03:16:32.596Z,6.48
2024-04-25T03:18:59.804Z,6.46
2024-04-25T03:21:26.963Z,6.42
2024-04-25T03:23:53.949Z,6.47
2024-04-25T03:26:20.992Z,6.72
2024-04-25T03:28:48.066Z,6.58
2024-04-25T03:31:17.547Z,6.45
2024-04-25T03:33:46.371Z,6.57
2024-04-25T03:36:13.376Z,6.50
2024-04-25T03:38:40.445Z,6.53
2024-04-25T03:41:07.519Z,6.45
2024-04-25T03:43:34.750Z,6.45
2024-04-25T03:46:01.712Z,6.58
2024-04-25T03:48:29.039Z,6.65
2024-04-25T03:50:56.021Z,6.66
2024-04-25T03:53:23.057Z,6.68
2024-04-25T03:55:50.095Z,6.64
2024-04-25T03:58:17.378Z,6.57
2024-04-25T04:00:44.573Z,6.48
2024-04-25T04:03:15.201Z,6.50
2024-04-25T04:05:42.395Z,6.55
2024-04-25T04:08:09.731Z,6.51
2024-04-25T04:10:36.721Z,6.55
2024-04-25T04:13:03.875Z,6.56
2024-04-25T04:15:30.899Z,6.52
2024-04-25T04:17:57.936Z,6.56
2024-04-25T04:20:24.971Z,6.69
2024-04-25T04:22:51.949Z,6.73
2024-04-25T04:25:19.369Z,6.73
2024-04-25T04:27:46.344Z,6.72
2024-04-25T04:30:13.473Z,6.65
2024-04-25T04:32:41.346Z,6.66
2024-04-25T04:35:08.489Z,6.68
2024-04-25T04:37:35.530Z,6.76
2024-04-25T04:40:02.883Z,6.82
2024-04-25T04:42:30.015Z,6.79
2024-04-25T04:44:57.224Z,6.88
2024-04-25T04:47:24.313Z,6.84
2024-04-25T04:49:52.592Z,7.04
2024-04-25T04:52:20.429Z,7.29
2024-04-25T04:54:47.871Z,7.61
2024-04-25T04:57:14.899Z,7.90
2024-04-25T04:59:41.958Z,8.27
2024-04-25T05:02:09.232Z,8.47
2024-04-25T05:04:36.392Z,8.57
2024-04-25T05:07:04.964Z,8.37
2024-04-25T05:09:32.124Z,8.32
2024-04-25T05:11:59.134Z,8.53
2024-04-25T05:14:26.386Z,9.04
2024-04-25T05:16:53.425Z,8.87
2024-04-25T05:19:20.894Z,9.17
2024-04-25T05:21:49.954Z,9.30
2024-04-25T05:24:17.118Z,9.32
2024-04-25T05:26:44.151Z,9.83
2024-04-25T05:29:11.265Z,9.82
2024-04-25T05:31:38.320Z,10.47
2024-04-25T05:34:05.686Z,11.24
2024-04-25T05:36:32.717Z,10.66
2024-04-25T05:38:59.967Z,11.09
2024-04-25T05:41:27.952Z,10.87
2024-04-25T05:43:55.408Z,11.36
2024-04-25T05:46:22.987Z,11.42
2024-04-25T05:48:49.991Z,11.15
2024-04-25T05:51:17.118Z,11.47
2024-04-25T05:53:44.519Z,12.42
2024-04-25T05:56:11.757Z,12.48
2024-04-25T05:58:40.508Z,11.55
2024-04-25T06:01:07.502Z,11.01
2024-04-25T06:03:34.751Z,11.40
2024-04-25T06:06:02.529Z,10.70
2024-04-25T06:08:29.663Z,11.20
2024-04-25T06:10:56.694Z,10.08
2024-04-25T06:13:24.152Z,10.62
2024-04-25T06:15:51.468Z,11.03
2024-04-25T06:18:18.653Z,11.46
2024-04-25T06:20:45.933Z,12.22
2024-04-25T06:23:13.034Z,12.69
2024-04-25T06:25:42.399Z,12.69
2024-04-25T06:28:10.167Z,13.21
2024-04-25T06:30:37.173Z,12.84
2024-04-25T06:33:04.611Z,12.41
2024-04-25T06:35:32.242Z,12.00
2024-04-25T06:37:59.315Z,12.77
2024-04-25T06:40:26.453Z,13.11
2024-04-25T06:42:53.559Z,12.49
2024-04-25T06:45:22.209Z,13.20
2024-04-25T06:47:49.657Z,14.11
2024-04-25T06:50:16.703Z,14.08
2024-04-25T06:52:44.081Z,14.34
2024-04-25T06:55:11.036Z,13.48
2024-04-25T06:57:38.207Z,13.10
2024-04-25T07:00:05.827Z,12.14
2024-04-25T07:02:32.959Z,12.43
2024-04-25T07:05:01.057Z,12.25
2024-04-25T07:07:28.196Z,12.92
2024-04-25T07:09:55.290Z,12.88
2024-04-25T07:12:22.462Z,13.38
2024-04-25T07:14:49.522Z,14.13
2024-04-25T07:17:16.862Z,14.02
2024-04-25T07:19:43.877Z,13.25
2024-04-25T07:22:11.036Z,13.18
2024-04-25T07:24:37.989Z,12.84
2024-04-25T07:27:05.083Z,12.97
2024-04-25T07:29:34.533Z,13.12
2024-04-25T07:32:04.820Z,13.45
2024-04-25T07:34:31.991Z,13.34
2024-04-25T07:36:59.041Z,13.30
2024-04-25T07:39:26.042Z,12.74
2024-04-25T07:41:53.186Z,12.78
2024-04-25T07:44:20.317Z,12.81
2024-04-25T07:46:47.900Z,12.30
2024-04-25T07:49:17.405Z,12.52
2024-04-25T07:51:45.082Z,13.07
2024-04-25T07:54:12.151Z,12.81
2024-04-25T07:56:39.343Z,12.02
2024-04-25T07:59:07.080Z,11.99
2024-04-25T08:01:34.268Z,11.82
2024-04-25T08:04:01.297Z,11.79
2024-04-25T08:06:28.547Z,11.58
2024-04-25T08:08:55.555Z,12.05
2024-04-25T08:11:22.736Z,11.97
2024-04-25T08:13:49.764Z,12.16
2024-04-25T08:16:16.895Z,12.06
2024-04-25T08:18:44.533Z,11.68
2024-04-25T08:21:13.900Z,12.83
2024-04-25T08:23:40.998Z,12.31
2024-04-25T08:26:08.355Z,12.82
2024-04-25T08:28:35.649Z,13.11
2024-04-25T08:31:02.988Z,12.11
2024-04-25T08:33:30.184Z,12.37
2024-04-25T08:35:57.521Z,12.79
2024-04-25T08:38:25.702Z,12.38
2024-04-25T08:40:53.626Z,12.54
2024-04-25T08:43:21.938Z,12.84
2024-04-25T08:45:51.307Z,13.01
2024-04-25T08:48:20.397Z,13.37
2024-04-25T08:50:53.458Z,13.72
2024-04-25T08:53:54.659Z,12.88
2024-04-25T08:56:38.353Z,12.57
2024-04-25T08:59:12.360Z,13.17
2024-04-25T09:01:47.366Z,12.89
2024-04-25T09:04:21.328Z,13.26
2024-04-25T09:06:48.539Z,13.76
2024-04-25T09:09:17.434Z,12.70
2024-04-25T09:11:44.513Z,12.70
2024-04-25T09:14:11.683Z,12.78
2024-04-25T09:16:41.895Z,12.51
2024-04-25T09:19:10.452Z,12.69
2024-04-25T09:21:40.546Z,13.01
2024-04-25T09:24:10.764Z,12.70
2024-04-25T09:26:41.553Z,12.75
2024-04-25T09:29:08.948Z,12.33
2024-04-25T09:31:37.756Z,13.09
2024-04-25T09:34:05.045Z,12.87
2024-04-25T09:36:32.461Z,13.00
2024-04-25T09:38:59.508Z,12.81
2024-04-25T09:41:28.797Z,13.24
2024-04-25T09:43:57.468Z,13.40
2024-04-25T09:46:33.100Z,13.11
2024-04-25T09:49:03.331Z,13.53
2024-04-25T09:52:04.012Z,13.81
2024-04-25T09:54:38.978Z,13.55
2024-04-25T09:57:07.032Z,13.82
2024-04-25T09:59:41.758Z,13.17
2024-04-25T10:02:17.672Z,12.54
2024-04-25T10:04:45.449Z,12.69
2024-04-25T10:07:15.331Z,12.64
2024-04-25T10:09:44.232Z,12.76
2024-04-25T10:12:11.570Z,12.81
2024-04-25T10:14:38.694Z,13.06
2024-04-25T10:17:08.900Z,13.14
2024-04-25T10:19:37.036Z,13.01
2024-04-25T10:22:03.976Z,13.67
2024-04-25T10:24:31.188Z,13.28
2024-04-25T10:27:10.157Z,13.60
2024-04-25T10:29:38.838Z,13.54
2024-04-25T10:32:06.026Z,13.52
2024-04-25T10:34:33.240Z,13.73
2024-04-25T10:37:00.250Z,13.80
2024-04-25T10:39:27.360Z,13.65
2024-04-25T10:41:54.487Z,13.77
2024-04-25T10:44:21.614Z,13.81
2024-04-25T10:46:49.195Z,13.91
2024-04-25T10:49:16.408Z,13.85
2024-04-25T10:51:44.062Z,13.69
2024-04-25T10:54:11.530Z,13.52
2024-04-25T10:56:42.394Z,13.85
2024-04-25T10:59:09.628Z,13.90
2024-04-25T11:01:36.607Z,14.02
2024-04-25T11:04:05.160Z,14.35
2024-04-25T11:06:34.674Z,13.93
2024-04-25T11:09:02.490Z,14.32
2024-04-25T11:11:29.808Z,14.61
2024-04-25T11:13:57.680Z,14.94
2024-04-25T11:16:35.090Z,14.64
2024-04-25T11:19:13.687Z,14.37
2024-04-25T11:21:48.443Z,14.40
2024-04-25T11:24:20.633Z,14.54
2024-04-25T11:26:51.516Z,14.74
2024-04-25T11:29:24.460Z,14.63
2024-04-25T11:31:55.120Z,15.20
2024-04-25T11:34:24.570Z,14.46
2024-04-25T11:37:04.985Z,14.75
2024-04-25T11:39:36.724Z,14.51
2024-04-25T11:42:10.007Z,14.56
2024-04-25T11:44:37.221Z,14.36
2024-04-25T11:47:04.425Z,14.74
2024-04-25T11:49:32.364Z,14.55
2024-04-25T11:51:59.766Z,14.46
2024-04-25T11:54:26.977Z,14.93
2024-04-25T11:56:55.844Z,14.99
2024-04-25T11:59:23.189Z,15.14
2024-04-25T12:01:53.767Z,15.03
2024-04-25T12:04:22.147Z,14.86
2024-04-25T12:06:49.340Z,15.39
2024-04-25T12:09:16.326Z,14.49
2024-04-25T12:11:47.992Z,14.36
2024-04-25T12:14:17.862Z,14.85
2024-04-25T12:16:45.030Z,14.33
2024-04-25T12:19:12.135Z,14.92
2024-04-25T12:21:39.142Z,15.12
2024-04-25T12:24:06.535Z,14.93
2024-04-25T12:26:33.621Z,15.60
2024-04-25T12:29:00.751Z,16.31
2024-04-25T12:31:27.990Z,16.79
2024-04-25T12:33:56.681Z,16.02
2024-04-25T12:36:23.858Z,15.09
2024-04-25T12:38:51.215Z,15.27
2024-04-25T12:41:18.554Z,15.52
2024-04-25T12:43:46.091Z,15.28
2024-04-25T12:46:13.151Z,15.80
2024-04-25T12:48:40.410Z,16.13
2024-04-25T12:51:07.561Z,16.28
2024-04-25T12:53:35.170Z,16.66
2024-04-25T12:56:02.424Z,16.03
2024-04-25T12:58:29.563Z,16.33
2024-04-25T13:00:56.648Z,16.56
2024-04-25T13:03:25.716Z,16.74
2024-04-25T13:05:54.067Z,16.70
2024-04-25T13:08:21.229Z,16.83
2024-04-25T13:10:48.331Z,16.84
2024-04-25T13:13:18.003Z,17.04
2024-04-25T13:15:45.214Z,16.66
2024-04-25T13:18:12.630Z,16.28
2024-04-25T13:20:39.818Z,16.53
2024-04-25T13:23:06.915Z,16.53
2024-04-25T13:25:37.841Z,16.18
2024-04-25T13:28:07.791Z,16.35
2024-04-25T13:30:34.839Z,15.98
2024-04-25T13:33:02.221Z,15.63
2024-04-25T13:35:29.335Z,15.99
2024-04-25T13:37:58.744Z,16.01
2024-04-25T13:40:27.454Z,16.21
2024-04-25T13:42:54.567Z,15.99
2024-04-25T13:45:21.918Z,15.96
2024-04-25T13:47:49.285Z,15.72
2024-04-25T13:50:18.573Z,15.76
2024-04-25T13:52:47.269Z,15.86
2024-04-25T13:55:15.840Z,15.81
2024-04-25T13:57:43.184Z,15.82
2024-04-25T14:00:10.832Z,15.91
2024-04-25T14:02:40.739Z,15.32
2024-04-25T14:05:07.841Z,15.32
2024-04-25T14:07:34.831Z,15.23
2024-04-25T14:10:02.299Z,15.45
2024-04-25T14:12:30.043Z,15.45
2024-04-25T14:14:57.661Z,15.42
2024-04-25T14:17:25.004Z,15.54
2024-04-25T14:19:52.291Z,15.44
2024-04-25T14:22:19.437Z,15.25
2024-04-25T14:24:47.310Z,15.20
2024-04-25T14:27:32.903Z,15.14
2024-04-25T14:30:00.079Z,14.75
2024-04-25T14:32:27.510Z,15.09
2024-04-25T14:34:56.789Z,14.79
2024-04-25T14:37:24.866Z,14.90
2024-04-25T14:39:52.238Z,15.00
2024-04-25T14:42:19.694Z,14.81
2024-04-25T14:44:47.663Z,14.54
2024-04-25T14:47:14.889Z,14.67
2024-04-25T14:49:42.083Z,14.51
2024-04-25T14:52:09.097Z,14.83
2024-04-25T14:54:36.339Z,15.11
2024-04-25T14:57:03.934Z,15.31
2024-04-25T14:59:31.284Z,15.35
2024-04-25T15:01:58.401Z,15.30
2024-04-25T15:04:25.581Z,15.20
2024-04-25T15:06:52.642Z,15.08
2024-04-25T15:09:20.042Z,15.50
2024-04-25T15:12:02.322Z,15.77
2024-04-25T15:14:29.570Z,16.03
2024-04-25T15:16:56.598Z,15.94
2024-04-25T15:19:23.904Z,15.75
2024-04-25T15:21:50.850Z,15.95
2024-04-25T15:24:17.891Z,16.09
2024-04-25T15:26:44.903Z,15.49
2024-04-25T15:29:12.037Z,15.59
2024-04-25T15:31:39.386Z,15.50
2024-04-25T15:34:06.635Z,15.35
2024-04-25T15:36:33.657Z,15.35
2024-04-25T15:39:01.293Z,15.10
2024-04-25T15:41:28.795Z,15.28
2024-04-25T15:43:56.211Z,15.35
2024-04-25T15:46:23.294Z,15.02
2024-04-25T15:48:50.489Z,15.26
2024-04-25T15:51:17.600Z,15.31
2024-04-25T15:53:44.759Z,15.25
2024-04-25T15:56:12.049Z,15.58
2024-04-25T15:58:40.825Z,15.43
2024-04-25T16:01:09.126Z,15.14
2024-04-25T16:03:36.421Z,15.21
2024-04-25T16:06:04.742Z,15.42
2024-04-25T16:08:33.339Z,15.52
2024-04-25T16:11:00.586Z,15.58
2024-04-25T16:13:27.774Z,15.68
2024-04-25T16:15:56.907Z,15.63
2024-04-25T16:18:24.312Z,15.45
2024-04-25T16:20:51.863Z,15.26
2024-04-25T16:23:19.121Z,14.79
2024-04-25T16:25:46.171Z,14.58
2024-04-25T16:28:13.287Z,14.65
2024-04-25T16:30:40.340Z,14.79
2024-04-25T16:33:07.694Z,14.95
2024-04-25T16:35:34.675Z,15.08
2024-04-25T16:38:01.753Z,14.94
2024-04-25T16:40:29.725Z,15.03
2024-04-25T16:42:57.449Z,14.91
2024-04-25T16:45:26.530Z,15.01
2024-04-25T16:47:53.725Z,14.89
2024-04-25T16:50:22.335Z,14.74
2024-04-25T16:52:50.018Z,14.52
2024-04-25T16:55:16.979Z,14.55
2024-04-25T16:57:45.801Z,14.37
2024-04-25T17:00:14.393Z,14.40
2024-04-25T17:02:41.737Z,14.24
2024-04-25T17:05:11.045Z,14.32
2024-04-25T17:07:38.136Z,14.39
2024-04-25T17:10:06.653Z,14.41
2024-04-25T17:12:33.784Z,14.44
2024-04-25T17:15:01.004Z,14.35
2024-04-25T17:17:28.294Z,14.31
2024-04-25T17:19:55.379Z,14.17
2024-04-25T17:22:22.611Z,14.05
2024-04-25T17:24:49.662Z,13.97
2024-04-25T17:27:16.811Z,13.96
2024-04-25T17:29:43.859Z,13.80
2024-04-25T17:32:14.315Z,13.68
2024-04-25T17:34:41.901Z,13.59
2024-04-25T17:37:10.013Z,13.54
2024-04-25T17:39:37.292Z,13.44
2024-04-25T17:42:04.550Z,13.40
2024-04-25T17:44:31.995Z,13.29
2024-04-25T17:47:01.568Z,13.22
2024-04-25T17:49:28.653Z,13.15
2024-04-25T17:51:55.714Z,13.11
2024-04-25T17:54:22.724Z,13.04
2024-04-25T17:56:49.878Z,12.96
2024-04-25T17:59:17.049Z,12.90
2024-04-25T18:01:46.859Z,12.92
2024-04-25T18:04:13.998Z,12.87
2024-04-25T18:06:41.199Z,12.98
2024-04-25T18:09:09.267Z,12.93
2024-04-25T18:11:36.552Z,13.03
2024-04-25T18:14:03.891Z,13.08
2024-04-25T18:16:31.137Z,12.99
2024-04-25T18:18:58.861Z,12.84
2024-04-25T18:21:33.188Z,12.74
2024-04-25T18:24:03.038Z,12.72
2024-04-25T18:26:30.067Z,12.64
2024-04-25T18:28:57.218Z,12.62
2024-04-25T18:31:24.587Z,12.52
2024-04-25T18:33:51.961Z,12.56
2024-04-25T18:36:20.150Z,12.36
2024-04-25T18:38:47.841Z,12.29
2024-04-25T18:41:17.983Z,12.11
2024-04-25T18:43:46.562Z,12.00
2024-04-25T18:46:14.221Z,11.94
2024-04-25T18:48:41.681Z,11.94
2024-04-25T18:51:08.812Z,12.07
2024-04-25T18:53:35.874Z,12.15
2024-04-25T18:56:02.923Z,12.11
2024-04-25T18:58:30.052Z,12.11
2024-04-25T19:00:57.248Z,12.04
2024-04-25T19:03:24.618Z,12.04
2024-04-25T19:05:51.729Z,11.92
2024-04-25T19:08:18.799Z,12.01
2024-04-25T19:10:45.877Z,11.85
2024-04-25T19:13:16.770Z,11.65
2024-04-25T19:15:43.866Z,11.59
2024-04-25T19:18:14.769Z,11.42
2024-04-25T19:20:42.010Z,11.30
2024-04-25T19:23:09.041Z,11.39
2024-04-25T19:25:37.468Z,11.27
2024-04-25T19:28:04.825Z,11.28
2024-04-25T19:30:31.937Z,11.25
2024-04-25T19:32:59.053Z,11.35
2024-04-25T19:35:26.259Z,11.41
2024-04-25T19:37:56.066Z,11.30
2024-04-25T19:40:23.194Z,11.43
2024-04-25T19:42:50.396Z,11.49
2024-04-25T19:45:17.574Z,11.41
2024-04-25T19:47:44.712Z,11.26
2024-04-25T19:50:12.151Z,11.32
2024-04-25T19:52:39.780Z,11.33
2024-04-25T19:55:07.089Z,11.27
2024-04-25T19:57:34.150Z,11.40
2024-04-25T20:00:03.294Z,11.14
2024-04-25T20:02:32.102Z,11.07
2024-04-25T20:04:59.698Z,10.86
2024-04-25T20:07:28.153Z,10.74
2024-04-25T20:09:55.197Z,10.67
2024-04-25T20:12:22.446Z,10.56
2024-04-25T20:14:52.350Z,10.56
2024-04-25T20:17:39.660Z,10.58
2024-04-25T20:20:26.106Z,10.46
2024-04-25T20:22:53.536Z,10.51
2024-04-25T20:25:21.124Z,10.40
2024-04-25T20:27:48.546Z,10.34
2024-04-25T20:30:15.646Z,10.24
2024-04-25T20:32:44.217Z,10.21
2024-04-25T20:35:11.468Z,10.26
2024-04-25T20:37:38.629Z,10.23
2024-04-25T20:40:08.331Z,10.24
2024-04-25T20:42:35.359Z,10.23
2024-04-25T20:45:03.252Z,10.20
2024-04-25T20:47:31.232Z,10.20
2024-04-25T20:49:58.483Z,10.20
2024-04-25T20:52:25.862Z,10.10
2024-04-25T20:54:52.859Z,10.06
2024-04-25T20:57:19.934Z,9.96
2024-04-25T20:59:48.049Z,9.94
2024-04-25T21:02:15.690Z,9.83
2024-04-25T21:04:42.929Z,9.99
2024-04-25T21:07:10.406Z,9.99
2024-04-25T21:09:37.389Z,9.94
2024-04-25T21:12:04.629Z,9.90
2024-04-25T21:14:31.842Z,9.82
2024-04-25T21:16:59.019Z,9.76
2024-04-25T21:19:25.952Z,9.76
2024-04-25T21:21:53.042Z,9.71
2024-04-25T21:24:20.044Z,9.73
2024-04-25T21:26:48.134Z,9.76
2024-04-25T21:29:15.662Z,9.65
2024-04-25T21:31:44.045Z,9.64
2024-04-25T21:34:11.612Z,9.79
2024-04-25T21:36:39.907Z,9.78
2024-04-25T21:39:07.171Z,9.77
2024-04-25T21:41:46.903Z,9.76
2024-04-25T21:44:14.943Z,9.68
2024-04-25T21:46:43.286Z,9.72
2024-04-25T21:49:10.918Z,9.62
2024-04-25T21:51:45.920Z,9.54
2024-04-25T21:54:13.707Z,9.50
2024-04-25T21:56:40.846Z,9.43
2024-04-25T21:59:08.051Z,9.45
2024-04-25T22:01:35.337Z,9.48
2024-04-25T22:04:02.525Z,9.46
2024-04-25T22:06:29.567Z,9.35
2024-04-25T22:08:56.859Z,9.30
2024-04-25T22:11:23.978Z,9.37
2024-04-25T22:13:51.383Z,9.25
2024-04-25T22:16:18.371Z,9.24
2024-04-25T22:18:49.984Z,9.23
2024-04-25T22:21:18.183Z,9.21
2024-04-25T22:23:47.390Z,9.34
2024-04-25T22:26:14.876Z,9.17
2024-04-25T22:28:44.835Z,9.30
2024-04-25T22:31:11.953Z,9.31
2024-04-25T22:33:38.986Z,9.45
2024-04-25T22:36:10.049Z,9.50
2024-04-25T22:38:37.486Z,9.46
2024-04-25T22:41:04.581Z,9.34
2024-04-25T22:43:31.633Z,9.28
2024-04-25T22:45:58.642Z,9.33
2024-04-25T22:48:25.757Z,9.28
2024-04-25T22:50:52.980Z,9.28
2024-04-25T22:53:20.110Z,9.23
2024-04-25T22:55:48.441Z,9.32
2024-04-25T22:58:15.504Z,9.29
2024-04-25T23:00:42.435Z,9.21
2024-04-25T23:03:09.718Z,9.29
2024-04-25T23:05:36.718Z,9.14
2024-04-25T23:08:03.965Z,9.13
2024-04-25T23:10:31.881Z,9.04
2024-04-25T23:12:59.933Z,9.06
2024-04-25T23:15:26.958Z,8.96
2024-04-25T23:17:54.046Z,8.94
2024-04-25T23:20:21.118Z,8.87
2024-04-25T23:22:48.362Z,8.74
2024-04-25T23:25:15.315Z,8.66
2024-04-25T23:27:43.517Z,8.54
2024-04-25T23:30:10.669Z,8.50
2024-04-25T23:32:38.008Z,8.47
2024-04-25T23:35:06.027Z,8.59
2024-04-25T23:37:33.042Z,8.63
2024-04-25T23:40:00.732Z,8.68
2024-04-25T23:42:27.810Z,8.58
2024-04-25T23:44:54.896Z,8.55
2024-04-25T23:47:21.976Z,8.52
2024-04-25T23:49:50.387Z,8.65
2024-04-25T23:52:18.037Z,8.77
2024-04-25T23:54:44.933Z,8.75
2024-04-25T23:57:12.038Z,8.69
2024-04-25T23:59:39.021Z,8.63
